createdAt,value
2022-09-29T00:02:55.126Z,5.00
2022-09-29T00:05:35.168Z,4.20
2022-09-29T00:08:06.527Z,3.90
2022-09-29T00:10:40.009Z,3.80
2022-09-29T00:13:10.766Z,4.00
2022-09-29T00:15:47.617Z,4.90
2022-09-29T00:18:31.284Z,4.50
2022-09-29T00:21:20.983Z,3.90
2022-09-29T00:23:51.654Z,4.20
2022-09-29T00:26:40.818Z,5.20
2022-09-29T00:29:17.854Z,4.80
2022-09-29T00:32:06.247Z,5.10
2022-09-29T00:35:01.790Z,4.40
2022-09-29T00:37:47.997Z,4.70
2022-09-29T00:40:38.608Z,4.00
2022-09-29T00:43:28.396Z,4.40
2022-09-29T00:46:39.400Z,4.10
2022-09-29T00:50:06.418Z,5.40
2022-09-29T00:53:17.856Z,4.30
2022-09-29T00:56:18.882Z,4.50
2022-09-29T00:59:31.003Z,4.70
2022-09-29T01:02:46.814Z,5.80
2022-09-29T01:05:53.852Z,5.60
2022-09-29T01:09:03.193Z,4.60
2022-09-29T01:11:40.515Z,5.40
2022-09-29T01:14:15.347Z,5.60
2022-09-29T01:17:02.508Z,5.40
2022-09-29T01:20:01.967Z,4.90
2022-09-29T01:23:26.327Z,5.90
2022-09-29T01:26:32.607Z,5.50
2022-09-29T01:29:49.808Z,6.10
2022-09-29T01:33:16.928Z,5.90
2022-09-29T01:35:57.036Z,6.00
2022-09-29T01:39:13.082Z,5.90
2022-09-29T01:44:55.084Z,6.00
2022-09-29T01:47:45.641Z,5.30
2022-09-29T01:50:34.728Z,5.00
2022-09-29T01:53:27.261Z,5.50
2022-09-29T01:56:44.177Z,6.10
2022-09-29T01:59:39.193Z,7.00
2022-09-29T02:02:19.251Z,6.10
2022-09-29T02:04:55.673Z,6.20
2022-09-29T02:07:43.111Z,5.70
2022-09-29T02:10:48.498Z,5.70
2022-09-29T02:13:32.963Z,5.40
2022-09-29T02:16:17.399Z,4.80
2022-09-29T02:19:07.814Z,5.60
2022-09-29T02:22:08.942Z,5.50
2022-09-29T02:24:43.546Z,5.50
2022-09-29T02:27:30.363Z,5.30
2022-09-29T02:30:14.667Z,4.90
2022-09-29T02:32:52.113Z,5.10
2022-09-29T02:36:20.606Z,5.30
2022-09-29T02:39:36.291Z,5.00
2022-09-29T02:42:20.608Z,4.90
2022-09-29T02:45:17.846Z,4.70
2022-09-29T02:48:31.780Z,4.80
2022-09-29T02:51:38.137Z,4.70
2022-09-29T02:54:39.409Z,4.90
2022-09-29T02:57:45.353Z,4.60
2022-09-29T03:00:16.534Z,4.90
2022-09-29T03:03:17.832Z,5.00
2022-09-29T03:06:09.248Z,4.80
2022-09-29T03:09:15.177Z,5.40
2022-09-29T03:12:25.367Z,5.30
2022-09-29T03:15:23.401Z,4.70
2022-09-29T03:18:38.023Z,5.30
2022-09-29T03:21:18.241Z,5.60
2022-09-29T03:23:57.886Z,5.60
2022-09-29T03:26:53.162Z,5.00
2022-09-29T03:29:52.289Z,4.40
2022-09-29T03:32:36.970Z,4.90
2022-09-29T03:35:21.066Z,4.90
2022-09-29T03:38:23.831Z,4.90
2022-09-29T03:41:22.673Z,5.10
2022-09-29T03:44:03.142Z,5.40
2022-09-29T03:46:47.434Z,4.40
2022-09-29T03:49:33.963Z,4.60
2022-09-29T03:52:11.994Z,5.40
2022-09-29T03:54:53.188Z,5.00
2022-09-29T03:57:51.906Z,5.30
2022-09-29T04:00:37.067Z,5.10
2022-09-29T04:03:58.474Z,5.20
2022-09-29T04:07:08.659Z,5.40
2022-09-29T04:10:00.483Z,5.60
2022-09-29T04:12:49.350Z,5.30
2022-09-29T04:16:07.208Z,5.70
2022-09-29T04:18:45.045Z,4.60
2022-09-29T04:21:24.820Z,5.00
2022-09-29T04:24:28.532Z,5.00
2022-09-29T04:27:21.115Z,5.30
2022-09-29T04:30:16.130Z,6.90
2022-09-29T04:33:16.405Z,5.60
2022-09-29T04:36:21.515Z,5.60
2022-09-29T04:38:59.059Z,5.20
2022-09-29T04:41:36.157Z,5.90
2022-09-29T04:44:09.780Z,5.90
2022-09-29T04:46:56.570Z,6.10
2022-09-29T04:49:38.825Z,5.90
2022-09-29T04:52:15.807Z,6.30
2022-09-29T04:55:14.474Z,6.40
2022-09-29T04:57:50.116Z,7.00
2022-09-29T05:03:27.454Z,8.90
2022-09-29T05:06:19.762Z,8.60
2022-09-29T05:09:02.393Z,8.20
2022-09-29T05:11:56.647Z,7.60
2022-09-29T05:14:25.957Z,6.80
2022-09-29T05:16:58.628Z,6.60
2022-09-29T05:19:26.954Z,7.30
2022-09-29T05:22:01.333Z,7.60
2022-09-29T05:24:43.780Z,8.00
2022-09-29T05:27:34.470Z,8.10
2022-09-29T05:30:08.274Z,7.60
2022-09-29T05:32:42.721Z,7.10
2022-09-29T05:35:14.601Z,7.30
2022-09-29T05:37:42.692Z,7.60
2022-09-29T05:40:24.461Z,6.80
2022-09-29T05:42:56.000Z,6.70
2022-09-29T05:45:30.674Z,6.60
2022-09-29T05:48:08.584Z,7.40
2022-09-29T05:50:48.540Z,7.50
2022-09-29T05:53:23.618Z,6.80
2022-09-29T05:56:02.488Z,6.70
2022-09-29T05:58:37.914Z,6.50
2022-09-29T06:01:28.055Z,6.50
2022-09-29T06:04:05.103Z,5.90
2022-09-29T06:06:37.304Z,6.90
2022-09-29T06:09:10.200Z,5.90
2022-09-29T06:11:38.515Z,7.10
2022-09-29T06:14:07.403Z,6.00
2022-09-29T06:16:42.000Z,5.90
2022-09-29T06:19:22.295Z,5.60
2022-09-29T06:22:00.999Z,5.70
2022-09-29T06:24:32.451Z,5.60
2022-09-29T06:27:22.161Z,5.30
2022-09-29T06:29:50.378Z,5.90
2022-09-29T06:32:18.621Z,5.90
2022-09-29T06:35:14.488Z,5.20
2022-09-29T06:37:51.327Z,5.00
2022-09-29T06:40:23.551Z,4.70
2022-09-29T06:43:17.777Z,5.20
2022-09-29T06:45:49.994Z,5.90
2022-09-29T06:48:18.085Z,5.40
2022-09-29T06:50:56.888Z,5.90
2022-09-29T06:54:09.664Z,5.70
2022-09-29T06:56:45.947Z,5.00
2022-09-29T06:59:15.197Z,4.90
2022-09-29T07:01:44.530Z,4.50
2022-09-29T07:04:13.217Z,5.60
2022-09-29T07:06:42.145Z,5.20
2022-09-29T07:09:16.023Z,5.40
2022-09-29T07:11:47.247Z,6.10
2022-09-29T07:14:16.283Z,5.20
2022-09-29T07:16:44.298Z,5.90
2022-09-29T07:19:12.462Z,4.90
2022-09-29T07:21:40.462Z,5.50
2022-09-29T07:24:09.742Z,5.00
2022-09-29T07:29:33.081Z,5.10
2022-09-29T07:32:03.233Z,5.90
2022-09-29T07:34:31.729Z,6.30
2022-09-29T07:36:59.661Z,5.90
2022-09-29T07:39:29.598Z,4.20
2022-09-29T07:41:58.940Z,5.20
2022-09-29T07:44:33.492Z,5.10
2022-09-29T07:47:09.641Z,4.70
2022-09-29T07:49:45.390Z,5.10
2022-09-29T07:52:14.200Z,5.10
2022-09-29T07:54:42.995Z,4.30
2022-09-29T07:57:13.001Z,2.50
2022-09-29T07:59:47.439Z,2.80
2022-09-29T08:02:19.892Z,3.30
2022-09-29T08:05:00.634Z,3.00
2022-09-29T08:07:40.919Z,1.80
2022-09-29T08:10:16.986Z,2.00
2022-09-29T08:12:46.216Z,2.50
2022-09-29T08:15:18.102Z,3.20
2022-09-29T08:17:49.019Z,2.20
2022-09-29T08:20:20.686Z,3.10
2022-09-29T08:22:49.177Z,3.00
2022-09-29T08:25:18.430Z,2.80
2022-09-29T08:27:54.749Z,3.10
2022-09-29T08:30:25.820Z,3.10
2022-09-29T08:32:58.446Z,2.70
2022-09-29T08:37:55.616Z,2.20
2022-09-29T08:40:24.106Z,2.40
2022-09-29T08:42:55.437Z,2.60
2022-09-29T08:45:58.049Z,2.60
2022-09-29T08:48:34.933Z,2.60
2022-09-29T08:51:08.205Z,2.30
2022-09-29T08:53:53.436Z,2.30
2022-09-29T08:56:27.949Z,2.10
2022-09-29T08:58:58.893Z,2.00
2022-09-29T09:01:42.251Z,1.80
2022-09-29T09:04:22.468Z,2.20
2022-09-29T09:06:55.891Z,2.00
2022-09-29T09:09:35.949Z,1.80
2022-09-29T09:12:29.607Z,2.20
2022-09-29T09:15:07.050Z,1.80
2022-09-29T09:17:44.046Z,1.90
2022-09-29T09:20:19.575Z,1.50
2022-09-29T09:22:59.468Z,1.90
2022-09-29T09:25:36.339Z,1.90
2022-09-29T09:28:18.197Z,1.60
2022-09-29T09:31:03.766Z,1.70
2022-09-29T09:33:57.990Z,1.80
2022-09-29T09:36:46.262Z,1.50
2022-09-29T09:39:30.251Z,1.70
2022-09-29T09:42:02.145Z,1.70
2022-09-29T09:44:34.835Z,1.60
2022-09-29T09:47:27.759Z,1.80
2022-09-29T09:50:12.312Z,1.90
2022-09-29T09:53:15.287Z,2.00
2022-09-29T09:55:43.706Z,1.90
2022-09-29T10:01:07.143Z,1.60
2022-09-29T10:03:36.961Z,1.70
2022-09-29T10:06:11.165Z,1.50
2022-09-29T10:08:42.359Z,2.00
2022-09-29T10:11:22.894Z,1.60
2022-09-29T10:14:24.111Z,2.00
2022-09-29T10:16:58.561Z,1.70
2022-09-29T10:20:05.809Z,1.80
2022-09-29T10:22:34.663Z,2.10
2022-09-29T10:25:16.089Z,1.90
2022-09-29T10:27:47.156Z,2.00
2022-09-29T10:30:28.843Z,2.10
2022-09-29T10:33:01.139Z,1.70
2022-09-29T10:35:37.514Z,1.80
2022-09-29T10:38:15.951Z,2.00
2022-09-29T10:40:59.780Z,2.00
2022-09-29T10:43:41.146Z,2.10
2022-09-29T10:46:31.536Z,2.00
2022-09-29T10:49:11.224Z,2.00
2022-09-29T10:52:24.704Z,1.70
2022-09-29T10:55:00.651Z,1.70
2022-09-29T10:57:32.095Z,1.60
2022-09-29T11:00:08.753Z,1.70
2022-09-29T11:02:44.166Z,1.80
2022-09-29T11:05:21.907Z,1.70
2022-09-29T11:07:53.010Z,1.70
2022-09-29T11:10:29.910Z,1.90
2022-09-29T11:13:01.303Z,1.90
2022-09-29T11:15:39.085Z,1.50
2022-09-29T11:18:22.155Z,1.50
2022-09-29T11:21:00.439Z,1.80
2022-09-29T11:23:40.644Z,1.50
2022-09-29T11:26:27.882Z,1.80
2022-09-29T11:29:12.219Z,1.90
2022-09-29T11:31:56.341Z,1.50
2022-09-29T11:34:47.720Z,1.70
2022-09-29T11:37:45.738Z,1.80
2022-09-29T11:40:34.736Z,1.70
2022-09-29T11:43:12.122Z,1.70
2022-09-29T11:45:58.134Z,1.70
2022-09-29T11:48:56.657Z,1.50
2022-09-29T11:51:49.333Z,1.60
2022-09-29T11:54:39.054Z,1.40
2022-09-29T11:57:31.988Z,1.20
2022-09-29T12:00:12.126Z,1.70
2022-09-29T12:03:19.409Z,1.50
2022-09-29T12:06:13.943Z,1.40
2022-09-29T12:09:11.694Z,1.50
2022-09-29T12:12:23.093Z,1.70
2022-09-29T12:15:05.935Z,1.80
2022-09-29T12:17:41.023Z,1.30
2022-09-29T12:20:48.970Z,1.40
2022-09-29T12:23:20.981Z,2.50
2022-09-29T12:26:23.822Z,1.30
2022-09-29T12:29:08.401Z,1.20
2022-09-29T12:31:44.328Z,1.00
2022-09-29T12:34:21.373Z,1.30
2022-09-29T12:37:27.429Z,1.20
2022-09-29T12:40:20.482Z,1.20
2022-09-29T12:43:01.137Z,1.00
2022-09-29T12:45:39.030Z,1.20
2022-09-29T12:48:23.898Z,1.10
2022-09-29T12:51:09.764Z,1.10
2022-09-29T12:53:51.166Z,1.00
2022-09-29T12:56:33.911Z,1.10
2022-09-29T12:59:26.313Z,1.20
2022-09-29T13:01:56.857Z,1.60
2022-09-29T13:04:50.767Z,1.10
2022-09-29T13:07:27.495Z,1.30
2022-09-29T13:10:22.812Z,1.30
2022-09-29T13:13:22.734Z,1.00
2022-09-29T13:16:14.625Z,1.10
2022-09-29T13:18:59.776Z,1.10
2022-09-29T13:21:49.662Z,1.40
2022-09-29T13:24:39.693Z,1.10
2022-09-29T13:27:31.187Z,1.10
2022-09-29T13:32:46.737Z,1.30
2022-09-29T13:35:21.311Z,1.20
2022-09-29T13:37:53.276Z,1.20
2022-09-29T13:40:27.068Z,1.10
2022-09-29T13:43:00.589Z,1.20
2022-09-29T13:45:31.655Z,1.10
2022-09-29T13:48:02.828Z,1.60
2022-09-29T13:50:40.776Z,1.10
2022-09-29T13:53:34.022Z,0.90
2022-09-29T13:56:01.807Z,1.30
2022-09-29T13:58:30.424Z,1.00
2022-09-29T14:01:01.375Z,0.90
2022-09-29T14:03:44.204Z,1.30
2022-09-29T14:09:20.090Z,1.00
2022-09-29T14:11:55.330Z,1.10
2022-09-29T14:14:26.170Z,1.10
2022-09-29T14:17:02.869Z,1.00
2022-09-29T14:19:50.092Z,1.20
2022-09-29T14:22:30.690Z,1.40
2022-09-29T14:25:11.018Z,1.60
2022-09-29T14:27:50.256Z,1.20
2022-09-29T14:30:21.281Z,1.00
2022-09-29T14:32:58.514Z,1.10
2022-09-29T14:35:32.546Z,1.10
2022-09-29T14:38:24.399Z,1.20
2022-09-29T14:41:19.002Z,1.30
2022-09-29T14:43:51.164Z,1.20
2022-09-29T14:46:44.659Z,1.10
2022-09-29T14:49:53.361Z,1.10
2022-09-29T14:52:40.227Z,1.40
2022-09-29T14:55:39.002Z,1.00
2022-09-29T14:58:30.152Z,1.40
2022-09-29T15:01:25.781Z,1.80
2022-09-29T15:03:57.078Z,1.70
2022-09-29T15:06:29.091Z,1.60
2022-09-29T15:09:01.459Z,2.00
2022-09-29T15:12:04.642Z,2.00
2022-09-29T15:14:39.436Z,1.70
2022-09-29T15:17:21.576Z,1.80
2022-09-29T15:20:15.646Z,1.70
2022-09-29T15:23:05.438Z,1.40
2022-09-29T15:25:40.819Z,1.90
2022-09-29T15:28:19.925Z,1.60
2022-09-29T15:30:50.573Z,1.90
2022-09-29T15:33:22.852Z,1.50
2022-09-29T15:36:03.690Z,1.90
2022-09-29T15:38:38.610Z,1.80
2022-09-29T15:41:17.155Z,1.70
2022-09-29T15:43:54.584Z,1.60
2022-09-29T15:46:25.933Z,1.80
2022-09-29T15:49:13.133Z,1.40
2022-09-29T15:51:45.333Z,1.70
2022-09-29T15:54:20.025Z,1.70
2022-09-29T15:57:07.032Z,1.60
2022-09-29T15:59:43.124Z,1.70
2022-09-29T16:02:23.793Z,1.80
2022-09-29T16:04:56.973Z,1.70
2022-09-29T16:07:39.256Z,2.10
2022-09-29T16:10:21.760Z,1.90
2022-09-29T16:12:56.258Z,2.10
2022-09-29T16:15:27.205Z,2.10
2022-09-29T16:17:55.847Z,2.20
2022-09-29T16:20:28.447Z,2.00
2022-09-29T16:23:05.473Z,2.00
2022-09-29T16:25:34.708Z,2.40
2022-09-29T16:28:07.455Z,1.80
2022-09-29T16:30:40.620Z,2.10
2022-09-29T16:33:21.836Z,2.20
2022-09-29T16:35:53.241Z,2.10
2022-09-29T16:38:34.406Z,2.20
2022-09-29T16:41:11.309Z,3.00
2022-09-29T16:43:42.266Z,2.80
2022-09-29T16:46:18.647Z,2.90
2022-09-29T16:48:49.468Z,2.80
2022-09-29T16:51:39.675Z,2.50
2022-09-29T16:54:16.641Z,2.50
2022-09-29T16:56:49.846Z,3.30
2022-09-29T16:59:22.481Z,3.10
2022-09-29T17:01:51.039Z,2.80
2022-09-29T17:04:18.985Z,3.10
2022-09-29T17:06:48.468Z,2.70
2022-09-29T17:09:28.024Z,3.50
2022-09-29T17:14:26.329Z,3.70
2022-09-29T17:16:55.840Z,3.90
2022-09-29T17:19:24.345Z,3.50
2022-09-29T17:21:57.110Z,5.30
2022-09-29T17:24:31.017Z,4.00
2022-09-29T17:27:18.525Z,4.00
2022-09-29T17:29:46.615Z,4.30
2022-09-29T17:32:15.627Z,4.30
2022-09-29T17:34:47.540Z,4.80
2022-09-29T17:37:19.253Z,4.80
2022-09-29T17:39:48.256Z,4.90
2022-09-29T17:42:18.131Z,4.80
2022-09-29T17:44:48.340Z,5.00
2022-09-29T17:47:27.823Z,4.30
2022-09-29T17:49:58.824Z,4.70
2022-09-29T17:52:26.971Z,4.50
2022-09-29T17:54:54.894Z,5.00
2022-09-29T17:57:28.201Z,5.10
2022-09-29T18:00:00.722Z,5.60
2022-09-29T18:02:30.399Z,5.00
2022-09-29T18:07:26.845Z,4.50
2022-09-29T18:09:58.724Z,4.90
2022-09-29T18:12:26.424Z,5.00
2022-09-29T18:14:54.553Z,5.10
2022-09-29T18:17:26.514Z,5.00
2022-09-29T18:19:56.044Z,5.40
2022-09-29T18:22:25.590Z,5.00
2022-09-29T18:24:56.782Z,5.30
2022-09-29T18:27:25.319Z,5.50
2022-09-29T18:29:55.238Z,4.60
2022-09-29T18:32:23.511Z,4.90
2022-09-29T18:34:51.754Z,4.70
2022-09-29T18:37:19.803Z,5.60
2022-09-29T18:39:47.892Z,6.30
2022-09-29T18:42:17.820Z,6.40
2022-09-29T18:44:46.219Z,5.60
2022-09-29T18:47:17.377Z,5.90
2022-09-29T18:49:46.659Z,6.00
2022-09-29T18:52:15.438Z,5.90
2022-09-29T18:54:46.244Z,6.00
2022-09-29T18:57:14.789Z,5.20
2022-09-29T18:59:43.233Z,5.60
2022-09-29T19:02:21.353Z,4.80
2022-09-29T19:04:53.718Z,5.30
2022-09-29T19:07:22.515Z,6.20
2022-09-29T19:09:50.793Z,6.30
2022-09-29T19:12:26.933Z,5.40
2022-09-29T19:15:00.452Z,5.60
2022-09-29T19:17:29.203Z,5.70
2022-09-29T19:20:02.436Z,5.50
2022-09-29T19:22:38.318Z,5.70
2022-09-29T19:25:07.465Z,6.20
2022-09-29T19:27:40.694Z,6.10
2022-09-29T19:30:14.454Z,6.80
2022-09-29T19:32:45.269Z,6.40
2022-09-29T19:35:17.304Z,6.20
2022-09-29T19:37:49.127Z,7.00
2022-09-29T19:40:43.444Z,6.90
2022-09-29T19:43:14.290Z,6.50
2022-09-29T19:45:45.266Z,6.80
2022-09-29T19:48:19.441Z,6.90
2022-09-29T19:51:16.243Z,6.30
2022-09-29T19:53:48.670Z,6.10
2022-09-29T19:56:18.465Z,6.40
2022-09-29T19:58:54.449Z,6.40
2022-09-29T20:01:26.386Z,5.80
2022-09-29T20:03:54.423Z,6.10
2022-09-29T20:06:23.339Z,6.20
2022-09-29T20:11:20.087Z,6.90
2022-09-29T20:13:48.129Z,7.80
2022-09-29T20:16:16.534Z,7.00
2022-09-29T20:18:50.691Z,7.80
2022-09-29T20:21:19.180Z,8.00
2022-09-29T20:23:47.106Z,7.40
2022-09-29T20:26:20.355Z,7.90
2022-09-29T20:28:49.628Z,8.50
2022-09-29T20:31:19.287Z,8.50
2022-09-29T20:33:52.687Z,8.40
2022-09-29T20:36:54.423Z,9.80
2022-09-29T20:39:27.077Z,11.00
2022-09-29T20:41:58.493Z,8.80
2022-09-29T20:44:27.248Z,9.30
2022-09-29T20:46:57.767Z,10.50
2022-09-29T20:49:27.021Z,10.50
2022-09-29T20:51:55.838Z,11.60
2022-09-29T20:54:36.567Z,12.30
2022-09-29T20:57:04.801Z,12.40
2022-09-29T20:59:33.776Z,12.40
2022-09-29T21:02:02.763Z,12.80
2022-09-29T21:04:34.136Z,11.70
2022-09-29T21:07:25.852Z,11.40
2022-09-29T21:09:54.262Z,11.40
2022-09-29T21:12:23.608Z,10.60
2022-09-29T21:14:54.142Z,11.00
2022-09-29T21:17:25.722Z,12.70
2022-09-29T21:19:54.344Z,12.30
2022-09-29T21:22:32.207Z,13.70
2022-09-29T21:25:00.753Z,13.70
2022-09-29T21:27:30.141Z,12.60
2022-09-29T21:30:00.467Z,14.10
2022-09-29T21:32:29.368Z,14.10
2022-09-29T21:34:57.574Z,11.70
2022-09-29T21:37:25.356Z,11.60
2022-09-29T21:39:56.123Z,12.50
2022-09-29T21:42:27.395Z,12.60
2022-09-29T21:44:57.993Z,13.50
2022-09-29T21:47:48.729Z,14.10
2022-09-29T21:50:30.464Z,13.00
2022-09-29T21:52:58.641Z,13.80
2022-09-29T21:55:27.308Z,14.30
2022-09-29T21:57:57.079Z,13.80
2022-09-29T22:02:56.889Z,12.80
2022-09-29T22:05:26.191Z,13.10
2022-09-29T22:07:56.731Z,11.00
2022-09-29T22:10:40.834Z,12.50
2022-09-29T22:13:38.802Z,13.10
2022-09-29T22:16:13.420Z,12.60
2022-09-29T22:18:42.349Z,12.40
2022-09-29T22:21:20.926Z,12.70
2022-09-29T22:23:57.175Z,12.20
2022-09-29T22:26:26.446Z,10.60
2022-09-29T22:29:00.744Z,12.60
2022-09-29T22:31:32.085Z,11.90
2022-09-29T22:34:03.372Z,13.20
2022-09-29T22:36:34.744Z,14.00
2022-09-29T22:39:06.443Z,14.40
2022-09-29T22:41:36.985Z,14.00
2022-09-29T22:44:08.735Z,14.70
2022-09-29T22:46:37.439Z,14.70
2022-09-29T22:49:05.801Z,14.50
2022-09-29T22:51:36.324Z,13.60
2022-09-29T22:54:04.617Z,13.20
2022-09-29T22:56:32.999Z,12.70
2022-09-29T22:59:05.302Z,12.90
2022-09-29T23:01:35.129Z,13.50
2022-09-29T23:04:12.173Z,15.70
2022-09-29T23:06:42.303Z,15.80
2022-09-29T23:09:20.539Z,14.00
2022-09-29T23:11:59.370Z,15.00
2022-09-29T23:14:31.257Z,15.10
2022-09-29T23:17:02.485Z,12.70
2022-09-29T23:19:40.144Z,13.30
2022-09-29T23:22:08.756Z,12.40
2022-09-29T23:27:16.380Z,12.40
2022-09-29T23:29:44.723Z,12.30
2022-09-29T23:32:16.141Z,10.90
2022-09-29T23:34:48.068Z,11.00
2022-09-29T23:37:16.961Z,11.70
2022-09-29T23:39:46.373Z,12.80
2022-09-29T23:42:27.295Z,10.30
2022-09-29T23:45:01.487Z,10.50
2022-09-29T23:47:36.668Z,9.50
2022-09-29T23:50:11.784Z,9.80
2022-09-29T23:52:44.711Z,9.40
2022-09-29T23:55:14.251Z,11.20
2022-09-29T23:57:45.570Z,11.80
